sensor_id;sensor_type;location;lat;lon;timestamp;P1;durP1;ratioP1;P2;durP2;ratioP2
14094;SDS011;18096;48.142;16.290;2023-03-21T00:01:12;3.30;;;3.10;;
14094;SDS011;18096;48.142;16.290;2023-03-21T00:03:39;4.50;;;3.40;;
14094;SDS011;18096;48.142;16.290;2023-03-21T00:06:07;3.97;;;3.17;;
14094;SDS011;18096;48.142;16.290;2023-03-21T00:08:35;3.38;;;3.08;;
14094;SDS011;18096;48.142;16.290;2023-03-21T00:11:02;3.72;;;3.30;;
14094;SDS011;18096;48.142;16.290;2023-03-21T00:13:29;3.40;;;3.15;;
14094;SDS011;18096;48.142;16.290;2023-03-21T00:16:06;5.63;;;3.30;;
14094;SDS011;18096;48.142;16.290;2023-03-21T00:18:39;5.55;;;3.88;;
14094;SDS011;18096;48.142;16.290;2023-03-21T00:21:11;3.30;;;3.03;;
14094;SDS011;18096;48.142;16.290;2023-03-21T00:23:39;4.00;;;3.60;;
14094;SDS011;18096;48.142;16.290;2023-03-21T00:26:06;5.63;;;3.75;;
14094;SDS011;18096;48.142;16.290;2023-03-21T00:28:34;2.92;;;2.72;;
14094;SDS011;18096;48.142;16.290;2023-03-21T00:31:01;3.63;;;3.33;;
14094;SDS011;18096;48.142;16.290;2023-03-21T00:33:26;3.70;;;3.40;;
14094;SDS011;18096;48.142;16.290;2023-03-21T00:35:52;2.60;;;2.50;;
14094;SDS011;18096;48.142;16.290;2023-03-21T00:38:19;4.72;;;3.35;;
14094;SDS011;18096;48.142;16.290;2023-03-21T00:40:45;2.80;;;2.60;;
14094;SDS011;18096;48.142;16.290;2023-03-21T00:43:11;3.10;;;2.80;;
14094;SDS011;18096;48.142;16.290;2023-03-21T00:45:41;2.75;;;2.60;;
14094;SDS011;18096;48.142;16.290;2023-03-21T00:48:07;3.25;;;2.60;;
14094;SDS011;18096;48.142;16.290;2023-03-21T00:50:35;3.78;;;2.60;;
14094;SDS011;18096;48.142;16.290;2023-03-21T00:53:01;10.93;;;2.85;;
14094;SDS011;18096;48.142;16.290;2023-03-21T00:55:27;2.60;;;2.40;;
14094;SDS011;18096;48.142;16.290;2023-03-21T00:57:53;2.40;;;2.30;;
14094;SDS011;18096;48.142;16.290;2023-03-21T01:00:18;2.40;;;2.20;;
14094;SDS011;18096;48.142;16.290;2023-03-21T01:02:44;4.70;;;2.60;;
14094;SDS011;18096;48.142;16.290;2023-03-21T01:05:23;2.00;;;1.70;;
14094;SDS011;18096;48.142;16.290;2023-03-21T01:08:09;6.90;;;2.55;;
14094;SDS011;18096;48.142;16.290;2023-03-21T01:10:38;2.30;;;2.20;;
14094;SDS011;18096;48.142;16.290;2023-03-21T01:13:05;2.00;;;1.80;;
14094;SDS011;18096;48.142;16.290;2023-03-21T01:15:31;2.17;;;1.98;;
14094;SDS011;18096;48.142;16.290;2023-03-21T01:17:57;2.00;;;1.90;;
14094;SDS011;18096;48.142;16.290;2023-03-21T01:20:22;6.30;;;1.80;;
14094;SDS011;18096;48.142;16.290;2023-03-21T01:22:48;3.33;;;2.30;;
14094;SDS011;18096;48.142;16.290;2023-03-21T01:25:14;2.03;;;1.93;;
14094;SDS011;18096;48.142;16.290;2023-03-21T01:27:39;4.07;;;1.92;;
14094;SDS011;18096;48.142;16.290;2023-03-21T01:30:05;3.58;;;1.77;;
14094;SDS011;18096;48.142;16.290;2023-03-21T01:32:32;2.60;;;2.05;;
14094;SDS011;18096;48.142;16.290;2023-03-21T01:34:57;2.40;;;2.20;;
14094;SDS011;18096;48.142;16.290;2023-03-21T01:37:23;3.17;;;1.87;;
14094;SDS011;18096;48.142;16.290;2023-03-21T01:39:50;2.00;;;1.90;;
14094;SDS011;18096;48.142;16.290;2023-03-21T01:42:16;1.50;;;1.40;;
14094;SDS011;18096;48.142;16.290;2023-03-21T01:47:17;1.58;;;1.48;;
14094;SDS011;18096;48.142;16.290;2023-03-21T01:49:43;1.77;;;1.67;;
14094;SDS011;18096;48.142;16.290;2023-03-21T01:52:16;1.80;;;1.70;;
14094;SDS011;18096;48.142;16.290;2023-03-21T01:54:48;2.45;;;2.00;;
14094;SDS011;18096;48.142;16.290;2023-03-21T01:57:16;1.70;;;1.60;;
14094;SDS011;18096;48.142;16.290;2023-03-21T01:59:46;1.95;;;1.85;;
14094;SDS011;18096;48.142;16.290;2023-03-21T02:02:25;3.08;;;1.65;;
14094;SDS011;18096;48.142;16.290;2023-03-21T02:04:53;1.90;;;1.40;;
14094;SDS011;18096;48.142;16.290;2023-03-21T02:07:32;1.80;;;1.70;;
14094;SDS011;18096;48.142;16.290;2023-03-21T02:10:03;3.63;;;1.70;;
14094;SDS011;18096;48.142;16.290;2023-03-21T02:12:37;1.70;;;1.60;;
14094;SDS011;18096;48.142;16.290;2023-03-21T02:15:03;1.55;;;1.45;;
14094;SDS011;18096;48.142;16.290;2023-03-21T02:17:35;3.00;;;1.50;;
14094;SDS011;18096;48.142;16.290;2023-03-21T02:20:34;1.17;;;1.17;;
14094;SDS011;18096;48.142;16.290;2023-03-21T02:35:01;1.50;;;1.40;;
14094;SDS011;18096;48.142;16.290;2023-03-21T02:37:18;1.75;;;1.48;;
14094;SDS011;18096;48.142;16.290;2023-03-21T02:47:49;1.63;;;1.52;;
14094;SDS011;18096;48.142;16.290;2023-03-21T02:50:23;1.52;;;1.42;;
14094;SDS011;18096;48.142;16.290;2023-03-21T02:52:54;1.58;;;1.48;;
14094;SDS011;18096;48.142;16.290;2023-03-21T02:55:22;1.53;;;1.53;;
14094;SDS011;18096;48.142;16.290;2023-03-21T02:57:54;1.50;;;1.40;;
14094;SDS011;18096;48.142;16.290;2023-03-21T03:00:22;1.27;;;1.17;;
14094;SDS011;18096;48.142;16.290;2023-03-21T03:02:50;1.80;;;1.30;;
14094;SDS011;18096;48.142;16.290;2023-03-21T03:15:39;2.10;;;1.30;;
14094;SDS011;18096;48.142;16.290;2023-03-21T03:21:31;1.42;;;1.30;;
14094;SDS011;18096;48.142;16.290;2023-03-21T03:24:28;1.40;;;1.30;;
14094;SDS011;18096;48.142;16.290;2023-03-21T03:27:22;1.58;;;1.48;;
14094;SDS011;18096;48.142;16.290;2023-03-21T03:29:53;1.30;;;1.30;;
14094;SDS011;18096;48.142;16.290;2023-03-21T03:32:27;1.95;;;1.52;;
14094;SDS011;18096;48.142;16.290;2023-03-21T03:35:00;1.80;;;1.70;;
14094;SDS011;18096;48.142;16.290;2023-03-21T03:37:31;1.90;;;1.73;;
14094;SDS011;18096;48.142;16.290;2023-03-21T03:40:05;2.58;;;1.65;;
14094;SDS011;18096;48.142;16.290;2023-03-21T03:42:37;1.50;;;1.50;;
14094;SDS011;18096;48.142;16.290;2023-03-21T03:45:07;2.67;;;1.77;;
14094;SDS011;18096;48.142;16.290;2023-03-21T03:50:09;1.80;;;1.70;;
14094;SDS011;18096;48.142;16.290;2023-03-21T03:52:41;2.95;;;1.40;;
14094;SDS011;18096;48.142;16.290;2023-03-21T03:55:21;4.97;;;1.90;;
14094;SDS011;18096;48.142;16.290;2023-03-21T03:57:50;2.20;;;1.80;;
14094;SDS011;18096;48.142;16.290;2023-03-21T04:00:17;2.75;;;2.05;;
14094;SDS011;18096;48.142;16.290;2023-03-21T04:02:43;1.70;;;1.60;;
14094;SDS011;18096;48.142;16.290;2023-03-21T04:05:10;2.03;;;1.90;;
14094;SDS011;18096;48.142;16.290;2023-03-21T04:07:36;1.98;;;1.88;;
14094;SDS011;18096;48.142;16.290;2023-03-21T04:10:02;2.40;;;1.88;;
14094;SDS011;18096;48.142;16.290;2023-03-21T04:12:29;1.92;;;1.83;;
14094;SDS011;18096;48.142;16.290;2023-03-21T04:14:55;3.15;;;2.20;;
14094;SDS011;18096;48.142;16.290;2023-03-21T04:17:21;2.15;;;2.05;;
14094;SDS011;18096;48.142;16.290;2023-03-21T04:19:46;3.63;;;2.10;;
14094;SDS011;18096;48.142;16.290;2023-03-21T04:22:15;2.20;;;2.10;;
14094;SDS011;18096;48.142;16.290;2023-03-21T04:24:41;3.10;;;2.40;;
14094;SDS011;18096;48.142;16.290;2023-03-21T04:27:06;2.23;;;2.13;;
14094;SDS011;18096;48.142;16.290;2023-03-21T04:29:32;2.35;;;2.15;;
14094;SDS011;18096;48.142;16.290;2023-03-21T04:31:58;4.63;;;2.40;;
14094;SDS011;18096;48.142;16.290;2023-03-21T04:34:25;2.40;;;2.20;;
14094;SDS011;18096;48.142;16.290;2023-03-21T04:36:54;7.93;;;2.53;;
14094;SDS011;18096;48.142;16.290;2023-03-21T04:39:20;2.90;;;2.70;;
14094;SDS011;18096;48.142;16.290;2023-03-21T04:41:48;6.60;;;2.25;;
14094;SDS011;18096;48.142;16.290;2023-03-21T04:44:15;2.15;;;2.05;;
14094;SDS011;18096;48.142;16.290;2023-03-21T04:46:41;2.20;;;2.10;;
14094;SDS011;18096;48.142;16.290;2023-03-21T04:49:07;2.58;;;2.30;;
14094;SDS011;18096;48.142;16.290;2023-03-21T04:51:34;2.47;;;2.28;;
14094;SDS011;18096;48.142;16.290;2023-03-21T04:54:00;2.83;;;2.63;;
14094;SDS011;18096;48.142;16.290;2023-03-21T04:56:26;3.50;;;2.60;;
14094;SDS011;18096;48.142;16.290;2023-03-21T04:59:00;4.20;;;2.78;;
14094;SDS011;18096;48.142;16.290;2023-03-21T05:01:29;4.80;;;2.88;;
14094;SDS011;18096;48.142;16.290;2023-03-21T05:03:58;9.90;;;2.67;;
14094;SDS011;18096;48.142;16.290;2023-03-21T05:06:25;4.65;;;2.53;;
14094;SDS011;18096;48.142;16.290;2023-03-21T05:08:52;3.10;;;2.80;;
14094;SDS011;18096;48.142;16.290;2023-03-21T05:11:24;2.42;;;2.22;;
14094;SDS011;18096;48.142;16.290;2023-03-21T05:13:51;2.30;;;2.20;;
14094;SDS011;18096;48.142;16.290;2023-03-21T05:16:16;2.60;;;2.40;;
14094;SDS011;18096;48.142;16.290;2023-03-21T05:18:42;3.00;;;2.70;;
14094;SDS011;18096;48.142;16.290;2023-03-21T05:21:08;3.37;;;2.27;;
14094;SDS011;18096;48.142;16.290;2023-03-21T05:23:37;2.80;;;2.60;;
14094;SDS011;18096;48.142;16.290;2023-03-21T05:26:04;2.50;;;2.17;;
14094;SDS011;18096;48.142;16.290;2023-03-21T05:28:31;2.60;;;2.40;;
14094;SDS011;18096;48.142;16.290;2023-03-21T05:31:00;3.00;;;2.80;;
14094;SDS011;18096;48.142;16.290;2023-03-21T05:33:26;4.20;;;2.92;;
14094;SDS011;18096;48.142;16.290;2023-03-21T05:35:52;2.80;;;2.50;;
14094;SDS011;18096;48.142;16.290;2023-03-21T05:38:18;3.30;;;3.00;;
14094;SDS011;18096;48.142;16.290;2023-03-21T05:40:46;2.90;;;2.70;;
14094;SDS011;18096;48.142;16.290;2023-03-21T05:43:13;2.80;;;2.60;;
14094;SDS011;18096;48.142;16.290;2023-03-21T05:45:38;2.40;;;2.30;;
14094;SDS011;18096;48.142;16.290;2023-03-21T05:48:04;2.30;;;2.20;;
14094;SDS011;18096;48.142;16.290;2023-03-21T05:50:30;3.22;;;2.45;;
14094;SDS011;18096;48.142;16.290;2023-03-21T05:52:56;3.93;;;2.37;;
14094;SDS011;18096;48.142;16.290;2023-03-21T05:55:22;2.60;;;2.40;;
14094;SDS011;18096;48.142;16.290;2023-03-21T05:57:47;4.45;;;2.80;;
14094;SDS011;18096;48.142;16.290;2023-03-21T06:00:13;2.53;;;2.33;;
14094;SDS011;18096;48.142;16.290;2023-03-21T06:02:40;2.90;;;2.70;;
14094;SDS011;18096;48.142;16.290;2023-03-21T06:05:06;3.30;;;3.05;;
14094;SDS011;18096;48.142;16.290;2023-03-21T06:07:32;2.80;;;2.50;;
14094;SDS011;18096;48.142;16.290;2023-03-21T06:09:58;3.30;;;2.90;;
14094;SDS011;18096;48.142;16.290;2023-03-21T06:12:24;4.65;;;2.95;;
14094;SDS011;18096;48.142;16.290;2023-03-21T06:14:50;2.45;;;2.35;;
14094;SDS011;18096;48.142;16.290;2023-03-21T06:17:16;6.18;;;2.70;;
14094;SDS011;18096;48.142;16.290;2023-03-21T06:19:41;2.92;;;2.63;;
14094;SDS011;18096;48.142;16.290;2023-03-21T06:22:07;3.90;;;3.13;;
14094;SDS011;18096;48.142;16.290;2023-03-21T06:24:33;3.38;;;3.10;;
14094;SDS011;18096;48.142;16.290;2023-03-21T06:26:58;3.55;;;2.90;;
14094;SDS011;18096;48.142;16.290;2023-03-21T06:29:24;3.40;;;2.60;;
14094;SDS011;18096;48.142;16.290;2023-03-21T06:31:50;3.05;;;2.85;;
14094;SDS011;18096;48.142;16.290;2023-03-21T06:34:15;3.33;;;3.03;;
14094;SDS011;18096;48.142;16.290;2023-03-21T06:36:41;3.00;;;2.70;;
14094;SDS011;18096;48.142;16.290;2023-03-21T06:39:08;3.50;;;3.20;;
14094;SDS011;18096;48.142;16.290;2023-03-21T06:41:34;2.97;;;2.78;;
14094;SDS011;18096;48.142;16.290;2023-03-21T06:44:00;4.90;;;3.00;;
14094;SDS011;18096;48.142;16.290;2023-03-21T06:46:26;3.78;;;2.80;;
14094;SDS011;18096;48.142;16.290;2023-03-21T06:48:52;3.40;;;3.10;;
14094;SDS011;18096;48.142;16.290;2023-03-21T06:51:17;2.80;;;2.60;;
14094;SDS011;18096;48.142;16.290;2023-03-21T06:53:43;3.05;;;2.85;;
14094;SDS011;18096;48.142;16.290;2023-03-21T06:56:09;4.25;;;2.90;;
14094;SDS011;18096;48.142;16.290;2023-03-21T06:58:36;3.40;;;2.97;;
14094;SDS011;18096;48.142;16.290;2023-03-21T07:01:03;4.07;;;2.88;;
14094;SDS011;18096;48.142;16.290;2023-03-21T07:03:29;3.13;;;2.63;;
14094;SDS011;18096;48.142;16.290;2023-03-21T07:05:55;2.60;;;2.50;;
14094;SDS011;18096;48.142;16.290;2023-03-21T07:08:21;3.38;;;3.08;;
14094;SDS011;18096;48.142;16.290;2023-03-21T07:10:47;6.35;;;2.50;;
14094;SDS011;18096;48.142;16.290;2023-03-21T07:13:13;2.77;;;2.43;;
14094;SDS011;18096;48.142;16.290;2023-03-21T07:15:39;3.42;;;2.72;;
14094;SDS011;18096;48.142;16.290;2023-03-21T07:18:06;3.00;;;2.90;;
14094;SDS011;18096;48.142;16.290;2023-03-21T07:20:33;3.13;;;2.78;;
14094;SDS011;18096;48.142;16.290;2023-03-21T07:23:00;8.68;;;2.88;;
14094;SDS011;18096;48.142;16.290;2023-03-21T07:25:26;2.85;;;2.65;;
14094;SDS011;18096;48.142;16.290;2023-03-21T07:27:52;2.95;;;2.65;;
14094;SDS011;18096;48.142;16.290;2023-03-21T07:30:17;2.73;;;2.63;;
14094;SDS011;18096;48.142;16.290;2023-03-21T07:32:45;5.60;;;2.55;;
14094;SDS011;18096;48.142;16.290;2023-03-21T07:35:12;3.05;;;2.85;;
14094;SDS011;18096;48.142;16.290;2023-03-21T07:37:40;7.10;;;2.30;;
14094;SDS011;18096;48.142;16.290;2023-03-21T07:40:06;2.63;;;2.53;;
14094;SDS011;18096;48.142;16.290;2023-03-21T07:42:34;3.50;;;2.90;;
14094;SDS011;18096;48.142;16.290;2023-03-21T07:45:03;3.42;;;3.13;;
14094;SDS011;18096;48.142;16.290;2023-03-21T07:47:30;2.95;;;2.75;;
14094;SDS011;18096;48.142;16.290;2023-03-21T07:49:56;3.00;;;2.55;;
14094;SDS011;18096;48.142;16.290;2023-03-21T07:52:22;5.03;;;3.58;;
14094;SDS011;18096;48.142;16.290;2023-03-21T07:54:48;2.65;;;2.55;;
14094;SDS011;18096;48.142;16.290;2023-03-21T07:57:14;3.40;;;2.80;;
14094;SDS011;18096;48.142;16.290;2023-03-21T07:59:41;3.42;;;3.13;;
14094;SDS011;18096;48.142;16.290;2023-03-21T08:02:09;4.03;;;2.97;;
14094;SDS011;18096;48.142;16.290;2023-03-21T08:04:41;3.85;;;2.80;;
14094;SDS011;18096;48.142;16.290;2023-03-21T08:07:08;3.10;;;2.80;;
14094;SDS011;18096;48.142;16.290;2023-03-21T08:09:34;5.75;;;2.83;;
14094;SDS011;18096;48.142;16.290;2023-03-21T08:12:00;5.18;;;2.83;;
14094;SDS011;18096;48.142;16.290;2023-03-21T08:14:27;3.40;;;3.20;;
14094;SDS011;18096;48.142;16.290;2023-03-21T08:16:52;3.25;;;2.90;;
14094;SDS011;18096;48.142;16.290;2023-03-21T08:19:18;5.47;;;3.40;;
14094;SDS011;18096;48.142;16.290;2023-03-21T08:21:46;3.17;;;2.97;;
14094;SDS011;18096;48.142;16.290;2023-03-21T08:24:13;3.42;;;3.13;;
14094;SDS011;18096;48.142;16.290;2023-03-21T08:26:39;3.13;;;2.90;;
14094;SDS011;18096;48.142;16.290;2023-03-21T08:29:05;3.50;;;3.20;;
14094;SDS011;18096;48.142;16.290;2023-03-21T08:31:31;3.27;;;2.87;;
14094;SDS011;18096;48.142;16.290;2023-03-21T08:33:57;2.80;;;2.60;;
14094;SDS011;18096;48.142;16.290;2023-03-21T08:36:23;4.73;;;3.27;;
14094;SDS011;18096;48.142;16.290;2023-03-21T08:38:48;2.75;;;2.55;;
14094;SDS011;18096;48.142;16.290;2023-03-21T08:41:18;4.68;;;2.60;;
14094;SDS011;18096;48.142;16.290;2023-03-21T08:43:46;3.00;;;2.80;;
14094;SDS011;18096;48.142;16.290;2023-03-21T08:46:12;3.20;;;2.90;;
14094;SDS011;18096;48.142;16.290;2023-03-21T08:48:38;3.17;;;2.80;;
14094;SDS011;18096;48.142;16.290;2023-03-21T08:51:04;3.37;;;3.07;;
14094;SDS011;18096;48.142;16.290;2023-03-21T08:53:31;3.00;;;2.35;;
14094;SDS011;18096;48.142;16.290;2023-03-21T08:55:57;2.80;;;2.60;;
14094;SDS011;18096;48.142;16.290;2023-03-21T08:58:22;2.88;;;2.67;;
14094;SDS011;18096;48.142;16.290;2023-03-21T09:00:48;2.00;;;1.90;;
14094;SDS011;18096;48.142;16.290;2023-03-21T09:03:15;2.57;;;2.37;;
14094;SDS011;18096;48.142;16.290;2023-03-21T09:05:40;6.00;;;2.40;;
14094;SDS011;18096;48.142;16.290;2023-03-21T09:08:09;4.50;;;2.10;;
14094;SDS011;18096;48.142;16.290;2023-03-21T09:10:37;3.25;;;2.72;;
14094;SDS011;18096;48.142;16.290;2023-03-21T09:13:03;2.60;;;2.20;;
14094;SDS011;18096;48.142;16.290;2023-03-21T09:15:29;2.30;;;2.10;;
14094;SDS011;18096;48.142;16.290;2023-03-21T09:17:55;2.88;;;2.45;;
14094;SDS011;18096;48.142;16.290;2023-03-21T09:20:25;4.07;;;2.45;;
14094;SDS011;18096;48.142;16.290;2023-03-21T09:22:55;2.80;;;2.60;;
14094;SDS011;18096;48.142;16.290;2023-03-21T09:25:21;2.20;;;2.10;;
14094;SDS011;18096;48.142;16.290;2023-03-21T09:27:48;4.00;;;2.88;;
14094;SDS011;18096;48.142;16.290;2023-03-21T09:30:16;3.30;;;2.50;;
14094;SDS011;18096;48.142;16.290;2023-03-21T09:32:45;3.00;;;2.80;;
14094;SDS011;18096;48.142;16.290;2023-03-21T09:35:14;2.70;;;2.60;;
14094;SDS011;18096;48.142;16.290;2023-03-21T09:37:43;2.50;;;2.30;;
14094;SDS011;18096;48.142;16.290;2023-03-21T09:43:31;2.33;;;2.13;;
14094;SDS011;18096;48.142;16.290;2023-03-21T09:45:53;2.50;;;2.40;;
14094;SDS011;18096;48.142;16.290;2023-03-21T09:48:34;2.38;;;2.28;;
14094;SDS011;18096;48.142;16.290;2023-03-21T09:51:15;3.65;;;3.10;;
14094;SDS011;18096;48.142;16.290;2023-03-21T09:53:44;2.72;;;2.40;;
14094;SDS011;18096;48.142;16.290;2023-03-21T09:56:13;2.60;;;2.40;;
14094;SDS011;18096;48.142;16.290;2023-03-21T09:58:43;3.13;;;2.40;;
14094;SDS011;18096;48.142;16.290;2023-03-21T10:01:21;4.18;;;2.72;;
14094;SDS011;18096;48.142;16.290;2023-03-21T10:03:59;2.60;;;2.20;;
14094;SDS011;18096;48.142;16.290;2023-03-21T10:06:30;2.55;;;2.38;;
14094;SDS011;18096;48.142;16.290;2023-03-21T10:09:17;2.45;;;2.30;;
14094;SDS011;18096;48.142;16.290;2023-03-21T10:17:19;3.00;;;2.40;;
14094;SDS011;18096;48.142;16.290;2023-03-21T10:22:45;2.58;;;2.17;;
14094;SDS011;18096;48.142;16.290;2023-03-21T10:25:17;2.30;;;2.10;;
14094;SDS011;18096;48.142;16.290;2023-03-21T10:27:48;2.08;;;1.98;;
14094;SDS011;18096;48.142;16.290;2023-03-21T10:32:55;2.00;;;1.90;;
14094;SDS011;18096;48.142;16.290;2023-03-21T10:35:23;3.90;;;2.67;;
14094;SDS011;18096;48.142;16.290;2023-03-21T10:37:49;2.20;;;2.10;;
14094;SDS011;18096;48.142;16.290;2023-03-21T10:40:16;2.47;;;1.90;;
14094;SDS011;18096;48.142;16.290;2023-03-21T10:42:42;6.35;;;2.00;;
14094;SDS011;18096;48.142;16.290;2023-03-21T10:45:15;2.55;;;2.35;;
14094;SDS011;18096;48.142;16.290;2023-03-21T10:47:42;2.50;;;2.40;;
14094;SDS011;18096;48.142;16.290;2023-03-21T10:50:12;4.20;;;2.70;;
14094;SDS011;18096;48.142;16.290;2023-03-21T10:52:49;2.45;;;2.30;;
14094;SDS011;18096;48.142;16.290;2023-03-21T10:55:24;3.00;;;2.63;;
14094;SDS011;18096;48.142;16.290;2023-03-21T10:58:03;2.20;;;2.10;;
14094;SDS011;18096;48.142;16.290;2023-03-21T11:00:36;2.20;;;2.10;;
14094;SDS011;18096;48.142;16.290;2023-03-21T11:03:06;2.93;;;2.13;;
14094;SDS011;18096;48.142;16.290;2023-03-21T11:05:44;2.55;;;2.35;;
14094;SDS011;18096;48.142;16.290;2023-03-21T11:08:11;2.00;;;1.90;;
14094;SDS011;18096;48.142;16.290;2023-03-21T11:10:53;2.78;;;2.33;;
14094;SDS011;18096;48.142;16.290;2023-03-21T11:13:27;2.53;;;2.33;;
14094;SDS011;18096;48.142;16.290;2023-03-21T11:18:43;2.40;;;2.20;;
14094;SDS011;18096;48.142;16.290;2023-03-21T11:21:14;4.80;;;2.45;;
14094;SDS011;18096;48.142;16.290;2023-03-21T11:23:41;2.53;;;2.08;;
14094;SDS011;18096;48.142;16.290;2023-03-21T11:26:24;2.30;;;2.20;;
14094;SDS011;18096;48.142;16.290;2023-03-21T11:28:54;2.13;;;1.92;;
14094;SDS011;18096;48.142;16.290;2023-03-21T11:31:20;4.20;;;2.20;;
14094;SDS011;18096;48.142;16.290;2023-03-21T11:33:55;1.65;;;1.60;;
14094;SDS011;18096;48.142;16.290;2023-03-21T11:38:48;2.65;;;2.30;;
14094;SDS011;18096;48.142;16.290;2023-03-21T11:41:50;5.10;;;2.10;;
14094;SDS011;18096;48.142;16.290;2023-03-21T11:47:08;1.20;;;1.20;;
14094;SDS011;18096;48.142;16.290;2023-03-21T11:49:35;2.80;;;2.00;;
14094;SDS011;18096;48.142;16.290;2023-03-21T11:52:02;2.50;;;1.90;;
14094;SDS011;18096;48.142;16.290;2023-03-21T11:57:37;1.55;;;1.55;;
14094;SDS011;18096;48.142;16.290;2023-03-21T12:00:20;1.80;;;1.70;;
14094;SDS011;18096;48.142;16.290;2023-03-21T12:05:35;1.80;;;1.70;;
14094;SDS011;18096;48.142;16.290;2023-03-21T12:11:03;2.23;;;2.03;;
14094;SDS011;18096;48.142;16.290;2023-03-21T12:16:54;2.10;;;2.00;;
14094;SDS011;18096;48.142;16.290;2023-03-21T12:22:31;1.70;;;1.58;;
14094;SDS011;18096;48.142;16.290;2023-03-21T12:25:09;1.25;;;1.25;;
14094;SDS011;18096;48.142;16.290;2023-03-21T12:33:21;1.60;;;1.50;;
14094;SDS011;18096;48.142;16.290;2023-03-21T12:35:53;1.40;;;1.40;;
14094;SDS011;18096;48.142;16.290;2023-03-21T12:38:31;4.70;;;1.70;;
14094;SDS011;18096;48.142;16.290;2023-03-21T12:41:23;1.60;;;1.50;;
14094;SDS011;18096;48.142;16.290;2023-03-21T12:46:49;1.40;;;1.30;;
14094;SDS011;18096;48.142;16.290;2023-03-21T12:49:24;1.80;;;1.50;;
14094;SDS011;18096;48.142;16.290;2023-03-21T12:52:07;1.67;;;1.58;;
14094;SDS011;18096;48.142;16.290;2023-03-21T12:54:46;2.00;;;1.90;;
14094;SDS011;18096;48.142;16.290;2023-03-21T12:57:25;1.75;;;1.50;;
14094;SDS011;18096;48.142;16.290;2023-03-21T13:00:04;1.60;;;1.60;;
14094;SDS011;18096;48.142;16.290;2023-03-21T13:02:49;1.90;;;1.80;;
14094;SDS011;18096;48.142;16.290;2023-03-21T13:08:42;1.50;;;1.40;;
14094;SDS011;18096;48.142;16.290;2023-03-21T13:11:16;1.55;;;1.50;;
14094;SDS011;18096;48.142;16.290;2023-03-21T13:14:05;1.25;;;1.25;;
14094;SDS011;18096;48.142;16.290;2023-03-21T13:16:32;1.70;;;1.60;;
14094;SDS011;18096;48.142;16.290;2023-03-21T13:22:23;1.20;;;1.20;;
14094;SDS011;18096;48.142;16.290;2023-03-21T13:24:58;2.08;;;1.33;;
14094;SDS011;18096;48.142;16.290;2023-03-21T13:30:16;1.90;;;1.70;;
14094;SDS011;18096;48.142;16.290;2023-03-21T13:32:54;1.70;;;1.60;;
14094;SDS011;18096;48.142;16.290;2023-03-21T13:35:33;1.20;;;1.20;;
14094;SDS011;18096;48.142;16.290;2023-03-21T13:38:48;0.80;;;0.80;;
14094;SDS011;18096;48.142;16.290;2023-03-21T13:40:59;1.58;;;1.20;;
14094;SDS011;18096;48.142;16.290;2023-03-21T13:46:13;1.00;;;1.00;;
14094;SDS011;18096;48.142;16.290;2023-03-21T13:59:56;1.40;;;1.25;;
14094;SDS011;18096;48.142;16.290;2023-03-21T14:01:58;1.20;;;1.20;;
14094;SDS011;18096;48.142;16.290;2023-03-21T14:04:28;2.70;;;1.20;;
14094;SDS011;18096;48.142;16.290;2023-03-21T14:06:56;2.70;;;1.70;;
14094;SDS011;18096;48.142;16.290;2023-03-21T14:11:57;1.40;;;1.30;;
14094;SDS011;18096;48.142;16.290;2023-03-21T14:14:25;1.50;;;1.40;;
14094;SDS011;18096;48.142;16.290;2023-03-21T14:16:57;2.50;;;1.40;;
14094;SDS011;18096;48.142;16.290;2023-03-21T14:19:30;7.70;;;1.30;;
14094;SDS011;18096;48.142;16.290;2023-03-21T14:21:56;2.30;;;1.40;;
14094;SDS011;18096;48.142;16.290;2023-03-21T14:24:22;1.42;;;1.42;;
14094;SDS011;18096;48.142;16.290;2023-03-21T14:26:49;1.10;;;1.10;;
14094;SDS011;18096;48.142;16.290;2023-03-21T14:29:24;1.40;;;1.30;;
14094;SDS011;18096;48.142;16.290;2023-03-21T14:31:54;1.80;;;1.70;;
14094;SDS011;18096;48.142;16.290;2023-03-21T14:34:22;1.48;;;1.48;;
14094;SDS011;18096;48.142;16.290;2023-03-21T14:36:49;2.30;;;1.80;;
14094;SDS011;18096;48.142;16.290;2023-03-21T14:39:20;1.50;;;1.40;;
14094;SDS011;18096;48.142;16.290;2023-03-21T14:44:23;1.57;;;1.47;;
14094;SDS011;18096;48.142;16.290;2023-03-21T14:47:06;4.75;;;1.80;;
14094;SDS011;18096;48.142;16.290;2023-03-21T14:49:41;1.50;;;1.35;;
14094;SDS011;18096;48.142;16.290;2023-03-21T14:52:12;1.52;;;1.42;;
14094;SDS011;18096;48.142;16.290;2023-03-21T14:54:43;0.90;;;0.90;;
14094;SDS011;18096;48.142;16.290;2023-03-21T14:57:11;1.20;;;1.20;;
14094;SDS011;18096;48.142;16.290;2023-03-21T14:59:42;1.90;;;1.80;;
14094;SDS011;18096;48.142;16.290;2023-03-21T15:05:04;1.90;;;1.80;;
14094;SDS011;18096;48.142;16.290;2023-03-21T15:07:38;3.90;;;1.90;;
14094;SDS011;18096;48.142;16.290;2023-03-21T15:10:11;1.70;;;1.60;;
14094;SDS011;18096;48.142;16.290;2023-03-21T15:15:17;1.50;;;1.40;;
14094;SDS011;18096;48.142;16.290;2023-03-21T15:17:43;2.50;;;1.50;;
14094;SDS011;18096;48.142;16.290;2023-03-21T15:20:13;2.93;;;1.70;;
14094;SDS011;18096;48.142;16.290;2023-03-21T15:22:41;1.80;;;1.70;;
14094;SDS011;18096;48.142;16.290;2023-03-21T15:25:18;1.70;;;1.60;;
14094;SDS011;18096;48.142;16.290;2023-03-21T15:27:49;1.80;;;1.70;;
14094;SDS011;18096;48.142;16.290;2023-03-21T15:30:23;5.63;;;1.75;;
14094;SDS011;18096;48.142;16.290;2023-03-21T15:32:53;2.00;;;1.90;;
14094;SDS011;18096;48.142;16.290;2023-03-21T15:35:25;2.00;;;1.60;;
14094;SDS011;18096;48.142;16.290;2023-03-21T15:37:54;1.52;;;1.42;;
14094;SDS011;18096;48.142;16.290;2023-03-21T15:40:28;1.83;;;1.73;;
14094;SDS011;18096;48.142;16.290;2023-03-21T15:43:14;2.13;;;2.00;;
14094;SDS011;18096;48.142;16.290;2023-03-21T15:45:49;1.60;;;1.50;;
14094;SDS011;18096;48.142;16.290;2023-03-21T15:48:20;1.77;;;1.67;;
14094;SDS011;18096;48.142;16.290;2023-03-21T15:51:13;1.60;;;1.40;;
14094;SDS011;18096;48.142;16.290;2023-03-21T15:53:45;1.40;;;1.20;;
14094;SDS011;18096;48.142;16.290;2023-03-21T15:56:11;4.45;;;1.63;;
14094;SDS011;18096;48.142;16.290;2023-03-21T15:58:43;1.90;;;1.60;;
14094;SDS011;18096;48.142;16.290;2023-03-21T16:01:13;1.10;;;1.00;;
14094;SDS011;18096;48.142;16.290;2023-03-21T16:03:43;0.90;;;0.90;;
14094;SDS011;18096;48.142;16.290;2023-03-21T16:08:52;3.30;;;1.40;;
14094;SDS011;18096;48.142;16.290;2023-03-21T16:11:38;1.33;;;1.30;;
14094;SDS011;18096;48.142;16.290;2023-03-21T16:14:04;1.00;;;1.00;;
14094;SDS011;18096;48.142;16.290;2023-03-21T16:16:30;0.85;;;0.85;;
14094;SDS011;18096;48.142;16.290;2023-03-21T16:18:57;3.60;;;1.38;;
14094;SDS011;18096;48.142;16.290;2023-03-21T16:21:26;1.30;;;1.30;;
14094;SDS011;18096;48.142;16.290;2023-03-21T16:23:53;1.55;;;1.30;;
14094;SDS011;18096;48.142;16.290;2023-03-21T16:26:20;1.02;;;0.93;;
14094;SDS011;18096;48.142;16.290;2023-03-21T16:28:48;1.00;;;1.00;;
14094;SDS011;18096;48.142;16.290;2023-03-21T16:31:15;2.17;;;1.35;;
14094;SDS011;18096;48.142;16.290;2023-03-21T16:33:43;1.20;;;1.20;;
14094;SDS011;18096;48.142;16.290;2023-03-21T16:36:13;1.20;;;1.00;;
14094;SDS011;18096;48.142;16.290;2023-03-21T16:38:42;1.23;;;1.02;;
14094;SDS011;18096;48.142;16.290;2023-03-21T16:41:09;0.73;;;0.73;;
14094;SDS011;18096;48.142;16.290;2023-03-21T16:43:35;1.60;;;1.10;;
14094;SDS011;18096;48.142;16.290;2023-03-21T16:46:08;1.20;;;1.10;;
14094;SDS011;18096;48.142;16.290;2023-03-21T16:48:38;0.73;;;0.73;;